Barker, Texas
Current Conditions -  °F | °C
As of 8:53 AM on Friday 28 Nov 2014 (Local Time) from KSGR Reporting Station
Clear Clear  
Wind Chill: 57°   Ceiling: Unl
Heat Index: 57°   Visibility: 10mi
Dew Point: 50°   Wind: 7mph
Humidity: 77%   Direction: 140°SE
Pressure: 30.35"   Gusts: NA
Location:  29.78°N, 95.68°W
Report Text: KSGR 281453Z 14006KT 10SM CLR 14/10 A3035 RMK AO2 SLP278 T01390100 55001
Loading
Personal Weather Stations






























Interactive Weather Map New forecast layout! Learn more

10-Day Weather Forecast

Advertisements
Track Severe Weather on mobile